createdAt,value
2019-05-26T00:02:31.820Z,37.33
2019-05-26T00:05:03.237Z,31.90
2019-05-26T00:07:37.159Z,34.13
2019-05-26T00:10:11.399Z,31.60
2019-05-26T00:12:45.297Z,30.63
2019-05-26T00:15:20.207Z,28.00
2019-05-26T00:17:52.608Z,31.53
2019-05-26T00:20:25.223Z,30.13
2019-05-26T00:22:57.450Z,27.97
2019-05-26T00:25:34.571Z,27.10
2019-05-26T00:28:08.455Z,29.00
2019-05-26T00:30:41.182Z,32.10
2019-05-26T00:33:15.430Z,30.37
2019-05-26T00:35:49.948Z,30.13
2019-05-26T00:38:24.507Z,31.47
2019-05-26T00:41:00.674Z,32.63
2019-05-26T00:43:33.496Z,34.70
2019-05-26T00:46:05.803Z,34.57
2019-05-26T00:48:39.003Z,33.97
2019-05-26T00:51:11.933Z,35.50
2019-05-26T00:53:45.296Z,36.68
2019-05-26T00:56:21.134Z,38.67
2019-05-26T00:58:54.323Z,38.00
2019-05-26T01:01:28.197Z,40.60
2019-05-26T01:04:00.164Z,37.83
2019-05-26T01:06:32.974Z,39.80
2019-05-26T01:09:06.336Z,41.37
2019-05-26T01:11:40.199Z,50.83
2019-05-26T01:14:13.857Z,40.30
2019-05-26T01:16:47.718Z,41.63
2019-05-26T01:19:21.597Z,38.67
2019-05-26T01:21:54.835Z,43.00
2019-05-26T01:24:26.723Z,42.57
2019-05-26T01:26:59.876Z,44.10
2019-05-26T01:29:32.370Z,39.53
2019-05-26T01:32:06.025Z,36.57
2019-05-26T01:34:38.759Z,36.87
2019-05-26T01:37:10.998Z,32.13
2019-05-26T01:39:43.773Z,32.67
2019-05-26T01:42:16.697Z,27.53
2019-05-26T01:44:49.218Z,25.90
2019-05-26T01:47:23.228Z,29.33
2019-05-26T01:49:56.042Z,27.00
2019-05-26T01:52:28.759Z,29.40
2019-05-26T01:55:04.167Z,32.20
2019-05-26T01:57:36.549Z,30.77
2019-05-26T02:00:08.742Z,32.37
2019-05-26T02:02:41.650Z,32.50
2019-05-26T02:05:15.066Z,32.70
2019-05-26T02:07:48.101Z,33.17
2019-05-26T02:10:20.416Z,35.53
2019-05-26T02:12:52.743Z,32.67
2019-05-26T02:15:28.104Z,33.20
2019-05-26T02:18:00.404Z,32.67
2019-05-26T02:20:32.764Z,35.83
2019-05-26T02:23:04.989Z,33.50
2019-05-26T02:25:37.640Z,33.20
2019-05-26T02:28:10.119Z,43.43
2019-05-26T02:30:41.981Z,42.57
2019-05-26T02:33:15.746Z,39.83
2019-05-26T02:35:48.464Z,42.13
2019-05-26T02:38:25.896Z,40.40
2019-05-26T02:40:57.918Z,37.17
2019-05-26T02:43:29.763Z,39.03
2019-05-26T02:46:01.590Z,46.63
2019-05-26T02:48:34.327Z,39.53
2019-05-26T02:51:07.094Z,36.67
2019-05-26T02:53:40.111Z,39.97
2019-05-26T02:56:13.291Z,43.27
2019-05-26T02:58:45.879Z,42.90
2019-05-26T03:01:19.004Z,39.83
2019-05-26T03:03:52.006Z,41.17
2019-05-26T03:06:25.766Z,40.13
2019-05-26T03:09:18.537Z,36.57
2019-05-26T03:11:36.094Z,37.57
2019-05-26T03:14:10.078Z,33.60
2019-05-26T03:16:44.826Z,35.07
2019-05-26T03:19:18.783Z,34.50
2019-05-26T03:21:53.271Z,33.00
2019-05-26T03:24:28.584Z,33.77
2019-05-26T03:27:00.872Z,31.67
2019-05-26T03:29:33.228Z,38.03
2019-05-26T03:32:15.682Z,28.53
2019-05-26T03:34:47.759Z,30.43
2019-05-26T03:37:21.448Z,36.87
2019-05-26T03:39:54.991Z,35.83
2019-05-26T03:42:27.713Z,36.37
2019-05-26T03:44:59.679Z,29.63
2019-05-26T03:47:31.898Z,27.57
2019-05-26T03:50:04.182Z,28.77
2019-05-26T03:52:36.197Z,29.93
2019-05-26T03:55:09.511Z,30.77
2019-05-26T03:57:42.497Z,27.23
2019-05-26T04:00:15.229Z,26.07
2019-05-26T04:02:47.160Z,31.70
2019-05-26T04:05:19.443Z,34.27
2019-05-26T04:07:51.456Z,39.13
2019-05-26T04:10:23.740Z,40.90
2019-05-26T04:12:58.305Z,33.93
2019-05-26T04:15:31.041Z,37.73
2019-05-26T04:18:02.595Z,36.30
2019-05-26T04:20:35.179Z,26.70
2019-05-26T04:23:07.972Z,27.43
2019-05-26T04:25:40.313Z,26.20
2019-05-26T04:28:13.951Z,26.83
2019-05-26T04:30:46.212Z,30.33
2019-05-26T04:33:19.030Z,29.40
2019-05-26T04:35:51.037Z,25.93
2019-05-26T04:38:25.629Z,25.87
2019-05-26T04:40:58.355Z,28.23
2019-05-26T04:43:30.686Z,32.27
2019-05-26T04:46:02.966Z,45.00
2019-05-26T04:48:35.881Z,36.77
2019-05-26T04:51:11.914Z,37.77
2019-05-26T04:53:44.893Z,41.07
2019-05-26T04:56:18.308Z,43.00
2019-05-26T04:58:50.359Z,41.47
2019-05-26T05:01:23.335Z,35.23
2019-05-26T05:03:56.326Z,39.70
2019-05-26T05:06:29.921Z,34.10
2019-05-26T05:09:02.210Z,30.67
2019-05-26T05:11:34.117Z,32.73
2019-05-26T05:14:05.988Z,34.43
2019-05-26T05:16:39.868Z,50.70
2019-05-26T05:19:12.213Z,36.43
2019-05-26T05:21:44.619Z,42.23
2019-05-26T05:24:17.183Z,40.47
2019-05-26T05:26:50.570Z,45.27
2019-05-26T05:29:23.741Z,38.27
2019-05-26T05:31:57.391Z,39.80
2019-05-26T05:34:30.081Z,37.90
2019-05-26T05:37:01.584Z,33.40
2019-05-26T05:39:33.947Z,29.17
2019-05-26T05:42:06.419Z,32.60
2019-05-26T05:44:40.371Z,31.03
2019-05-26T05:47:12.262Z,32.10
2019-05-26T05:49:45.289Z,36.57
2019-05-26T05:52:17.961Z,44.07
2019-05-26T05:54:50.298Z,37.30
2019-05-26T05:57:24.425Z,31.17
2019-05-26T05:59:57.217Z,29.07
2019-05-26T06:02:30.687Z,39.80
2019-05-26T06:05:03.403Z,32.60
2019-05-26T06:07:35.582Z,30.47
2019-05-26T06:10:11.103Z,31.53
2019-05-26T06:12:45.225Z,32.03
2019-05-26T06:15:17.790Z,29.83
2019-05-26T06:17:52.015Z,32.70
2019-05-26T06:20:24.705Z,34.63
2019-05-26T06:22:57.562Z,28.37
2019-05-26T06:25:30.019Z,30.30
2019-05-26T06:28:02.977Z,24.17
2019-05-26T06:30:36.712Z,29.47
2019-05-26T06:33:09.279Z,38.80
2019-05-26T06:35:43.818Z,21.03
2019-05-26T06:38:16.131Z,24.63
2019-05-26T06:40:50.510Z,21.50
2019-05-26T06:43:25.251Z,23.40
2019-05-26T06:45:57.980Z,22.13
2019-05-26T06:48:31.053Z,22.53
2019-05-26T06:51:05.209Z,21.13
2019-05-26T06:53:39.784Z,30.87
2019-05-26T06:56:11.347Z,26.87
2019-05-26T06:58:44.285Z,23.57
2019-05-26T07:01:16.605Z,26.57
2019-05-26T07:03:48.552Z,23.53
2019-05-26T07:06:20.941Z,16.83
2019-05-26T07:08:56.440Z,16.33
2019-05-26T07:11:29.634Z,20.57
2019-05-26T07:14:04.257Z,20.17
2019-05-26T07:16:38.874Z,14.17
2019-05-26T07:19:16.342Z,14.77
2019-05-26T07:21:52.443Z,17.33
2019-05-26T07:24:29.491Z,16.53
2019-05-26T07:27:06.877Z,14.17
2019-05-26T07:29:50.735Z,17.97
2019-05-26T07:32:27.921Z,15.63
2019-05-26T07:35:01.493Z,12.83
2019-05-26T07:37:36.288Z,14.60
2019-05-26T07:40:09.492Z,10.47
2019-05-26T07:42:45.022Z,10.20
2019-05-26T07:45:18.349Z,12.83
2019-05-26T07:47:55.145Z,9.40
2019-05-26T07:50:29.025Z,12.10
2019-05-26T07:53:02.861Z,8.70
2019-05-26T07:55:38.500Z,6.27
2019-05-26T07:58:11.849Z,7.77
2019-05-26T08:00:51.737Z,8.00
2019-05-26T08:03:26.745Z,9.30
2019-05-26T08:06:04.156Z,12.53
2019-05-26T08:08:38.254Z,15.73
2019-05-26T08:11:11.691Z,11.60
2019-05-26T08:13:45.674Z,9.43
2019-05-26T08:16:19.640Z,12.50
2019-05-26T08:18:54.769Z,11.90
2019-05-26T08:21:29.003Z,9.37
2019-05-26T08:26:35.783Z,9.70
2019-05-26T08:29:08.232Z,9.83
2019-05-26T08:31:40.916Z,9.93
2019-05-26T08:34:14.375Z,9.77
2019-05-26T08:50:04.922Z,7.80
2019-05-26T08:52:40.532Z,16.00
2019-05-26T08:55:13.171Z,8.50
2019-05-26T08:57:45.665Z,6.43
2019-05-26T09:00:20.363Z,6.97
2019-05-26T09:02:52.887Z,7.03
2019-05-26T09:05:25.958Z,7.20
2019-05-26T09:07:59.257Z,8.40
2019-05-26T09:10:32.877Z,10.63
2019-05-26T09:13:05.886Z,9.07
2019-05-26T09:15:37.757Z,10.50
2019-05-26T09:18:11.461Z,10.63
2019-05-26T09:20:46.155Z,7.07
2019-05-26T09:23:20.854Z,8.40
2019-05-26T09:25:53.650Z,8.33
2019-05-26T09:28:26.464Z,8.57
2019-05-26T09:30:59.387Z,6.93
2019-05-26T09:33:32.853Z,6.90
2019-05-26T09:36:07.274Z,8.43
2019-05-26T09:38:42.149Z,7.70
2019-05-26T09:41:16.750Z,7.80
2019-05-26T09:43:54.178Z,6.87
2019-05-26T09:46:27.189Z,6.87
2019-05-26T09:49:01.138Z,7.97
2019-05-26T09:51:36.262Z,6.93
2019-05-26T09:54:12.649Z,5.90
2019-05-26T09:56:44.261Z,5.63
2019-05-26T09:59:17.329Z,6.17
2019-05-26T10:01:51.265Z,9.43
2019-05-26T10:04:25.387Z,7.30
2019-05-26T10:06:58.750Z,12.63
2019-05-26T10:09:33.150Z,6.43
2019-05-26T10:12:08.011Z,11.83
2019-05-26T10:14:41.538Z,7.57
2019-05-26T10:17:15.088Z,10.13
2019-05-26T10:19:49.364Z,5.77
2019-05-26T10:22:23.679Z,10.90
2019-05-26T10:24:57.667Z,13.33
2019-05-26T10:27:31.080Z,7.20
2019-05-26T10:30:04.275Z,10.40
2019-05-26T10:32:38.906Z,7.70
2019-05-26T10:35:12.609Z,7.10
2019-05-26T10:37:46.405Z,14.93
2019-05-26T10:40:19.646Z,10.77
2019-05-26T10:42:54.256Z,9.57
2019-05-26T10:45:34.127Z,6.77
2019-05-26T10:48:10.279Z,6.87
2019-05-26T10:50:44.950Z,9.90
2019-05-26T10:53:16.933Z,6.50
2019-05-26T10:55:52.034Z,7.07
2019-05-26T10:58:25.360Z,6.60
2019-05-26T11:00:58.954Z,10.90
2019-05-26T11:03:33.232Z,6.40
2019-05-26T11:06:05.358Z,5.63
2019-05-26T11:08:38.050Z,8.33
2019-05-26T11:11:12.696Z,108.90
2019-05-26T11:14:01.564Z,14.93
2019-05-26T11:16:25.770Z,6.27
2019-05-26T11:18:59.999Z,126.80
2019-05-26T11:21:34.870Z,9.67
2019-05-26T11:24:08.717Z,13.63
2019-05-26T11:26:43.020Z,7.97
2019-05-26T11:29:17.938Z,16.07
2019-05-26T11:31:53.388Z,7.67
2019-05-26T11:34:29.672Z,11.30
2019-05-26T11:37:06.315Z,8.93
2019-05-26T11:39:41.058Z,7.40
2019-05-26T11:42:14.293Z,7.17
2019-05-26T11:44:47.358Z,7.30
2019-05-26T11:47:19.709Z,6.97
2019-05-26T11:49:53.023Z,6.70
2019-05-26T11:52:34.236Z,12.23
2019-05-26T11:55:07.114Z,7.37
2019-05-26T11:57:41.479Z,8.57
2019-05-26T12:00:16.644Z,11.07
2019-05-26T12:02:50.356Z,7.63
2019-05-26T12:05:23.239Z,10.63
2019-05-26T12:07:56.915Z,8.40
2019-05-26T12:10:30.821Z,8.90
2019-05-26T12:13:03.182Z,6.70
2019-05-26T12:15:36.175Z,7.07
2019-05-26T12:18:09.246Z,9.13
2019-05-26T12:20:43.333Z,7.93
2019-05-26T12:23:17.100Z,6.20
2019-05-26T12:25:50.812Z,6.20
2019-05-26T12:28:25.831Z,5.60
2019-05-26T12:30:59.288Z,6.47
2019-05-26T12:33:37.811Z,6.47
2019-05-26T12:36:10.968Z,9.13
2019-05-26T12:38:54.118Z,8.40
2019-05-26T12:41:33.219Z,11.00
2019-05-26T12:44:10.576Z,10.43
2019-05-26T12:46:42.993Z,12.10
2019-05-26T12:49:15.784Z,6.83
2019-05-26T12:51:49.669Z,5.40
2019-05-26T12:54:24.822Z,5.80
2019-05-26T12:56:57.620Z,13.37
2019-05-26T12:59:30.789Z,5.83
2019-05-26T13:02:08.885Z,9.37
2019-05-26T13:04:41.663Z,5.53
2019-05-26T13:07:14.303Z,6.63
2019-05-26T13:09:48.158Z,7.13
2019-05-26T13:12:23.426Z,6.83
2019-05-26T13:15:05.544Z,7.90
2019-05-26T13:17:31.704Z,7.23
2019-05-26T13:20:05.832Z,9.97
2019-05-26T13:22:40.919Z,13.63
2019-05-26T13:25:15.550Z,9.57
2019-05-26T13:27:50.049Z,10.60
2019-05-26T13:30:24.666Z,12.40
2019-05-26T13:32:57.692Z,6.30
2019-05-26T13:35:30.680Z,10.97
2019-05-26T13:38:04.921Z,10.50
2019-05-26T13:40:37.553Z,6.47
2019-05-26T13:43:10.062Z,8.37
2019-05-26T13:45:43.778Z,8.50
2019-05-26T13:48:18.241Z,10.53
2019-05-26T13:50:50.969Z,7.43
2019-05-26T13:53:26.601Z,12.50
2019-05-26T13:56:01.053Z,6.67
2019-05-26T13:58:35.238Z,8.07
2019-05-26T14:01:07.615Z,7.27
2019-05-26T14:03:41.540Z,9.40
2019-05-26T14:06:14.479Z,6.90
2019-05-26T14:08:49.602Z,8.60
2019-05-26T14:11:22.809Z,7.10
2019-05-26T14:13:55.465Z,8.13
2019-05-26T14:16:32.093Z,6.73
2019-05-26T14:19:06.221Z,8.77
2019-05-26T14:30:51.483Z,9.83
2019-05-26T14:33:26.206Z,7.27
2019-05-26T14:35:59.604Z,9.43
2019-05-26T14:38:42.743Z,9.60
2019-05-26T14:41:08.698Z,11.20
2019-05-26T14:43:45.216Z,18.70
2019-05-26T14:46:17.366Z,10.77
2019-05-26T14:48:52.587Z,7.43
2019-05-26T14:51:26.781Z,6.77
2019-05-26T14:53:59.542Z,6.97
2019-05-26T14:56:33.554Z,8.33
2019-05-26T14:59:09.603Z,12.67
2019-05-26T15:01:43.058Z,8.47
2019-05-26T15:04:17.380Z,7.93
2019-05-26T15:06:50.062Z,11.33
2019-05-26T15:09:25.470Z,8.77
2019-05-26T15:11:58.376Z,10.13
2019-05-26T15:14:31.796Z,8.50
2019-05-26T15:17:04.673Z,10.50
2019-05-26T15:19:39.718Z,10.63
2019-05-26T15:22:12.369Z,8.03
2019-05-26T15:24:46.092Z,5.90
2019-05-26T15:27:20.282Z,8.03
2019-05-26T15:29:53.422Z,6.03
2019-05-26T15:32:27.265Z,13.83
2019-05-26T15:35:02.567Z,5.87
2019-05-26T15:37:34.952Z,9.00
2019-05-26T15:40:08.866Z,11.27
2019-05-26T15:42:42.014Z,31.03
2019-05-26T15:45:15.841Z,8.03
2019-05-26T15:47:48.848Z,6.97
2019-05-26T15:50:21.999Z,12.70
2019-05-26T15:52:55.294Z,14.80
2019-05-26T15:55:29.661Z,14.30
2019-05-26T15:58:04.392Z,11.00
2019-05-26T16:00:38.327Z,7.00
2019-05-26T16:03:12.310Z,10.43
2019-05-26T16:05:46.470Z,8.30
2019-05-26T16:08:20.361Z,17.03
2019-05-26T16:10:53.596Z,9.40
2019-05-26T16:13:27.780Z,10.27
2019-05-26T16:16:03.182Z,9.07
2019-05-26T16:18:37.251Z,9.63
2019-05-26T16:21:26.932Z,8.70
2019-05-26T16:23:46.863Z,6.50
2019-05-26T16:26:19.184Z,8.57
2019-05-26T16:28:51.784Z,12.37
2019-05-26T16:31:23.748Z,7.47
2019-05-26T16:33:56.100Z,7.87
2019-05-26T16:36:29.560Z,9.43
2019-05-26T16:39:03.522Z,7.23
2019-05-26T16:41:38.086Z,10.67
2019-05-26T16:44:11.550Z,15.17
2019-05-26T16:46:56.106Z,28.30
2019-05-26T16:49:22.512Z,21.13
2019-05-26T16:51:56.633Z,23.87
2019-05-26T16:54:32.100Z,15.33
2019-05-26T16:57:04.429Z,13.03
2019-05-26T16:59:37.025Z,10.90
2019-05-26T17:02:11.203Z,12.90
2019-05-26T17:04:43.488Z,18.63
2019-05-26T17:07:17.401Z,27.90
2019-05-26T17:09:50.668Z,20.57
2019-05-26T17:12:25.813Z,15.23
2019-05-26T17:15:01.074Z,13.87
2019-05-26T17:17:35.167Z,16.27
2019-05-26T17:20:10.802Z,17.30
2019-05-26T17:22:44.145Z,20.93
2019-05-26T17:25:22.095Z,15.40
2019-05-26T17:27:54.687Z,19.47
2019-05-26T17:30:28.522Z,21.53
2019-05-26T17:33:03.357Z,15.87
2019-05-26T17:35:38.597Z,14.90
2019-05-26T17:38:14.219Z,20.87
2019-05-26T17:40:48.101Z,14.50
2019-05-26T17:43:20.928Z,14.27
2019-05-26T17:45:54.720Z,16.80
2019-05-26T17:48:30.025Z,17.63
2019-05-26T17:51:03.642Z,21.93
2019-05-26T17:53:36.825Z,22.23
2019-05-26T17:56:09.942Z,22.00
2019-05-26T17:58:43.620Z,26.53
2019-05-26T18:01:17.294Z,26.57
2019-05-26T18:03:50.699Z,33.57
2019-05-26T18:06:23.106Z,32.57
2019-05-26T18:08:57.054Z,29.83
2019-05-26T18:11:29.438Z,29.73
2019-05-26T18:14:02.278Z,45.60
2019-05-26T18:16:35.890Z,59.87
2019-05-26T18:19:09.284Z,54.43
2019-05-26T18:21:43.799Z,57.10
2019-05-26T18:24:19.470Z,44.73
2019-05-26T18:26:57.795Z,51.83
2019-05-26T18:29:32.287Z,48.07
2019-05-26T18:32:05.765Z,57.10
2019-05-26T18:34:40.191Z,37.27
2019-05-26T18:37:15.243Z,31.20
2019-05-26T18:39:50.549Z,32.50
2019-05-26T18:42:25.507Z,34.90
2019-05-26T18:45:00.614Z,38.73
2019-05-26T18:47:34.095Z,37.00
2019-05-26T18:50:08.884Z,32.37
2019-05-26T18:52:43.885Z,23.97
2019-05-26T18:55:16.705Z,24.87
2019-05-26T18:57:50.691Z,28.90
2019-05-26T19:00:22.570Z,52.07
2019-05-26T19:02:56.894Z,53.33
2019-05-26T19:05:34.714Z,33.60
2019-05-26T19:08:10.874Z,33.07
2019-05-26T19:10:46.119Z,39.03
2019-05-26T19:13:19.427Z,34.30
2019-05-26T19:15:52.929Z,58.10
2019-05-26T19:18:27.850Z,45.10
2019-05-26T19:21:04.955Z,35.20
2019-05-26T19:23:40.015Z,37.30
2019-05-26T19:26:24.543Z,32.97
2019-05-26T19:29:00.231Z,35.87
2019-05-26T19:31:35.491Z,25.33
2019-05-26T19:34:09.979Z,21.47
2019-05-26T19:36:45.714Z,23.87
2019-05-26T19:39:18.661Z,21.87
2019-05-26T19:41:52.982Z,21.63
2019-05-26T19:44:28.361Z,19.10
2019-05-26T19:47:00.094Z,23.40
2019-05-26T19:49:33.284Z,31.23
2019-05-26T19:52:07.126Z,19.73
2019-05-26T19:54:40.235Z,23.30
2019-05-26T19:57:14.940Z,18.60
2019-05-26T19:59:47.284Z,27.37
2019-05-26T20:02:20.438Z,13.10
2019-05-26T20:04:53.733Z,18.57
2019-05-26T20:07:27.067Z,20.60
2019-05-26T20:10:00.219Z,13.97
2019-05-26T20:12:34.143Z,19.80
2019-05-26T20:15:09.256Z,16.87
2019-05-26T20:17:42.752Z,18.67
2019-05-26T20:20:17.429Z,18.13
2019-05-26T20:22:51.157Z,13.37
2019-05-26T20:25:25.149Z,15.63
2019-05-26T20:28:00.117Z,12.90
2019-05-26T20:30:32.872Z,11.77
2019-05-26T20:33:05.696Z,14.23
2019-05-26T20:35:39.299Z,12.83
2019-05-26T20:38:13.544Z,14.70
2019-05-26T20:40:46.884Z,16.80
2019-05-26T20:43:24.393Z,14.93
2019-05-26T20:45:55.630Z,15.73
2019-05-26T20:48:28.788Z,13.07
2019-05-26T20:51:02.386Z,11.43
2019-05-26T20:53:40.417Z,10.97
2019-05-26T20:56:12.605Z,15.97
2019-05-26T20:58:45.369Z,14.83
2019-05-26T21:01:18.546Z,15.30
2019-05-26T21:03:52.224Z,17.00
2019-05-26T21:06:25.570Z,21.47
2019-05-26T21:08:58.348Z,15.27
2019-05-26T21:11:32.056Z,13.03
2019-05-26T21:14:04.627Z,20.03
2019-05-26T21:16:38.084Z,19.87
2019-05-26T21:19:12.086Z,15.37
2019-05-26T21:21:45.904Z,14.70
2019-05-26T21:24:18.291Z,17.70
2019-05-26T21:26:51.371Z,16.50
2019-05-26T21:29:24.707Z,19.90
2019-05-26T21:32:02.945Z,20.00
2019-05-26T21:34:37.425Z,17.57
2019-05-26T21:37:11.752Z,14.47
2019-05-26T21:39:44.302Z,17.87
2019-05-26T21:42:16.643Z,15.80
2019-05-26T21:44:50.541Z,17.07
2019-05-26T21:47:24.282Z,16.40
2019-05-26T21:49:57.670Z,16.73
2019-05-26T21:52:31.097Z,18.37
2019-05-26T21:55:04.803Z,14.67
2019-05-26T21:57:38.890Z,19.53
2019-05-26T22:00:15.591Z,14.23
2019-05-26T22:02:52.391Z,18.33
2019-05-26T22:05:24.758Z,14.77
2019-05-26T22:07:59.109Z,20.03
2019-05-26T22:10:34.658Z,14.30
2019-05-26T22:13:08.030Z,14.30
2019-05-26T22:15:41.895Z,13.80
2019-05-26T22:18:16.389Z,16.83
2019-05-26T22:20:52.838Z,18.07
2019-05-26T22:23:27.533Z,14.67
2019-05-26T22:26:01.522Z,16.33
2019-05-26T22:28:35.491Z,16.87
2019-05-26T22:31:11.428Z,16.63
2019-05-26T22:33:47.016Z,13.63
2019-05-26T22:36:20.324Z,14.53
2019-05-26T22:38:54.214Z,13.27
2019-05-26T22:41:26.532Z,19.33
2019-05-26T22:44:00.408Z,15.63
2019-05-26T22:46:33.575Z,13.70
2019-05-26T22:49:06.009Z,16.43
2019-05-26T22:51:38.916Z,15.73
2019-05-26T22:54:12.043Z,16.57
2019-05-26T22:56:46.469Z,17.70
2019-05-26T22:59:19.023Z,15.97
2019-05-26T23:01:52.775Z,18.03
2019-05-26T23:04:26.152Z,14.30
2019-05-26T23:06:59.425Z,12.73
2019-05-26T23:09:34.090Z,14.33
2019-05-26T23:12:06.496Z,14.47
2019-05-26T23:14:39.429Z,15.23
2019-05-26T23:17:13.333Z,14.77
2019-05-26T23:19:45.790Z,15.47
2019-05-26T23:22:19.311Z,14.33
2019-05-26T23:24:53.254Z,20.13
2019-05-26T23:27:26.751Z,13.57
2019-05-26T23:30:00.487Z,16.13
2019-05-26T23:32:33.861Z,14.80
2019-05-26T23:35:05.863Z,14.37
2019-05-26T23:37:40.895Z,13.83
2019-05-26T23:40:13.736Z,16.27
2019-05-26T23:42:47.104Z,15.10
2019-05-26T23:45:21.094Z,14.00
2019-05-26T23:47:53.035Z,14.43
2019-05-26T23:50:26.575Z,17.13
2019-05-26T23:53:01.342Z,16.70
2019-05-26T23:55:33.512Z,14.63
2019-05-26T23:58:05.913Z,13.73
